KASX/ASX METAR and TAF weather

Enter ICAO airport designator
Station Type Date Time Source
KASX METAR 2021/05/14 12:53 UTC NOAA

KASX 141253Z AUTO 22007KT 10SM CLR 15/00 A3023 RMK AO2 SLP238 T01500000


Station Type Date Time Source
KASX Decoded METAR 2021/05/14 12:53 UTC NOAA

ASHLAND KENNEDY MEMORIAL, WI, United States (KASX) 46-33N 090-55W 251M
May 14, 2021 - 08:53 AM EDT / 2021.05.14 1253 UTC
Wind: from the SW (220 degrees) at 8 MPH (7 KT):0
Visibility: 10 mile(s):0
Sky conditions: clear
Temperature: 59.0 F (15.0 C)
Dew Point: 32.0 F (0.0 C)
Relative Humidity: 35%
Pressure (altimeter): 30.23 in. Hg (1023 hPa)
ob: KASX 141253Z AUTO 22007KT 10SM CLR 15/00 A3023 RMK AO2 SLP238 T01500000
cycle: 13

Station Type Date Time Source
KASX TAF UTC NOAA

Error!

Example: see airport list